sensor_id;sensor_type;location;lat;lon;timestamp;temperature;humidity
78054;DHT22;67726;45.636;11.752;2024-02-15T00:02:06;6.70;99.90
78054;DHT22;67726;45.636;11.752;2024-02-15T00:04:32;6.70;99.90
78054;DHT22;67726;45.636;11.752;2024-02-15T00:06:59;6.50;99.90
78054;DHT22;67726;45.636;11.752;2024-02-15T00:09:25;6.60;99.90
78054;DHT22;67726;45.636;11.752;2024-02-15T00:11:51;6.40;99.90
78054;DHT22;67726;45.636;11.752;2024-02-15T00:14:16;6.40;99.90
78054;DHT22;67726;45.636;11.752;2024-02-15T00:16:42;6.30;99.90
78054;DHT22;67726;45.636;11.752;2024-02-15T00:19:08;6.30;99.90
78054;DHT22;67726;45.636;11.752;2024-02-15T00:21:33;6.30;99.90
78054;DHT22;67726;45.636;11.752;2024-02-15T00:24:00;6.30;99.90
78054;DHT22;67726;45.636;11.752;2024-02-15T00:26:27;6.50;99.90
78054;DHT22;67726;45.636;11.752;2024-02-15T00:28:52;6.40;99.90
78054;DHT22;67726;45.636;11.752;2024-02-15T00:31:18;6.40;99.90
78054;DHT22;67726;45.636;11.752;2024-02-15T00:33:44;6.40;99.90
78054;DHT22;67726;45.636;11.752;2024-02-15T00:36:10;6.50;99.90
78054;DHT22;67726;45.636;11.752;2024-02-15T00:38:36;6.30;99.90
78054;DHT22;67726;45.636;11.752;2024-02-15T00:41:02;6.50;99.90
78054;DHT22;67726;45.636;11.752;2024-02-15T00:43:28;6.30;99.90
78054;DHT22;67726;45.636;11.752;2024-02-15T00:45:54;6.50;99.90
78054;DHT22;67726;45.636;11.752;2024-02-15T00:48:20;6.40;99.90
78054;DHT22;67726;45.636;11.752;2024-02-15T00:50:45;6.30;99.90
78054;DHT22;67726;45.636;11.752;2024-02-15T00:53:11;6.10;99.90
78054;DHT22;67726;45.636;11.752;2024-02-15T00:55:37;6.10;99.90
78054;DHT22;67726;45.636;11.752;2024-02-15T00:58:03;6.30;99.90
78054;DHT22;67726;45.636;11.752;2024-02-15T01:00:28;6.30;99.90
78054;DHT22;67726;45.636;11.752;2024-02-15T01:02:55;6.20;99.90
78054;DHT22;67726;45.636;11.752;2024-02-15T01:05:21;6.40;99.90
78054;DHT22;67726;45.636;11.752;2024-02-15T01:07:47;6.10;99.90
78054;DHT22;67726;45.636;11.752;2024-02-15T01:10:15;6.10;99.90
78054;DHT22;67726;45.636;11.752;2024-02-15T01:12:40;6.20;99.90
78054;DHT22;67726;45.636;11.752;2024-02-15T01:15:06;6.10;99.90
78054;DHT22;67726;45.636;11.752;2024-02-15T01:17:32;6.00;99.90
78054;DHT22;67726;45.636;11.752;2024-02-15T01:19:58;6.10;99.90
78054;DHT22;67726;45.636;11.752;2024-02-15T01:22:24;5.90;99.90
78054;DHT22;67726;45.636;11.752;2024-02-15T01:24:52;5.70;99.90
78054;DHT22;67726;45.636;11.752;2024-02-15T01:27:18;5.80;99.90
78054;DHT22;67726;45.636;11.752;2024-02-15T01:29:44;5.70;99.90
78054;DHT22;67726;45.636;11.752;2024-02-15T01:32:09;5.80;99.90
78054;DHT22;67726;45.636;11.752;2024-02-15T01:34:35;5.60;99.90
78054;DHT22;67726;45.636;11.752;2024-02-15T01:37:01;5.80;99.90
78054;DHT22;67726;45.636;11.752;2024-02-15T01:39:26;5.70;99.90
78054;DHT22;67726;45.636;11.752;2024-02-15T01:41:52;5.70;99.90
78054;DHT22;67726;45.636;11.752;2024-02-15T01:44:22;5.60;99.90
78054;DHT22;67726;45.636;11.752;2024-02-15T01:46:50;5.70;99.90
78054;DHT22;67726;45.636;11.752;2024-02-15T01:49:19;5.60;99.90
78054;DHT22;67726;45.636;11.752;2024-02-15T01:51:45;5.70;99.90
78054;DHT22;67726;45.636;11.752;2024-02-15T01:54:12;5.80;99.90
78054;DHT22;67726;45.636;11.752;2024-02-15T01:56:38;5.80;99.90
78054;DHT22;67726;45.636;11.752;2024-02-15T01:59:05;5.70;99.90
78054;DHT22;67726;45.636;11.752;2024-02-15T02:01:31;5.80;99.90
78054;DHT22;67726;45.636;11.752;2024-02-15T02:03:58;5.70;99.90
78054;DHT22;67726;45.636;11.752;2024-02-15T02:06:25;5.70;99.90
78054;DHT22;67726;45.636;11.752;2024-02-15T02:08:52;5.80;99.90
78054;DHT22;67726;45.636;11.752;2024-02-15T02:11:17;5.60;99.90
78054;DHT22;67726;45.636;11.752;2024-02-15T02:13:43;5.90;99.90
78054;DHT22;67726;45.636;11.752;2024-02-15T02:16:27;6.00;99.90
78054;DHT22;67726;45.636;11.752;2024-02-15T02:18:58;5.90;99.90
78054;DHT22;67726;45.636;11.752;2024-02-15T02:21:25;5.90;99.90
78054;DHT22;67726;45.636;11.752;2024-02-15T02:23:58;6.00;99.90
78054;DHT22;67726;45.636;11.752;2024-02-15T02:26:25;6.00;99.90
78054;DHT22;67726;45.636;11.752;2024-02-15T02:28:51;6.00;99.90
78054;DHT22;67726;45.636;11.752;2024-02-15T02:31:20;6.00;99.90
78054;DHT22;67726;45.636;11.752;2024-02-15T02:33:51;6.10;99.90
78054;DHT22;67726;45.636;11.752;2024-02-15T02:36:18;6.10;99.90
78054;DHT22;67726;45.636;11.752;2024-02-15T02:38:44;6.20;99.90
78054;DHT22;67726;45.636;11.752;2024-02-15T02:41:11;6.00;99.90
78054;DHT22;67726;45.636;11.752;2024-02-15T02:43:39;6.30;99.90
78054;DHT22;67726;45.636;11.752;2024-02-15T02:46:05;6.30;99.90
78054;DHT22;67726;45.636;11.752;2024-02-15T02:48:31;6.10;99.90
78054;DHT22;67726;45.636;11.752;2024-02-15T02:50:57;6.30;99.90
78054;DHT22;67726;45.636;11.752;2024-02-15T02:53:24;6.30;99.90
78054;DHT22;67726;45.636;11.752;2024-02-15T02:55:51;6.30;99.90
78054;DHT22;67726;45.636;11.752;2024-02-15T02:58:17;6.50;99.90
78054;DHT22;67726;45.636;11.752;2024-02-15T03:00:43;6.30;99.90
78054;DHT22;67726;45.636;11.752;2024-02-15T03:03:08;6.20;99.90
78054;DHT22;67726;45.636;11.752;2024-02-15T03:05:35;6.20;99.90
78054;DHT22;67726;45.636;11.752;2024-02-15T03:08:00;6.20;99.90
78054;DHT22;67726;45.636;11.752;2024-02-15T03:10:26;6.30;99.90
78054;DHT22;67726;45.636;11.752;2024-02-15T03:12:52;6.10;99.90
78054;DHT22;67726;45.636;11.752;2024-02-15T03:15:18;6.20;99.90
78054;DHT22;67726;45.636;11.752;2024-02-15T03:17:46;6.20;99.90
78054;DHT22;67726;45.636;11.752;2024-02-15T03:20:12;6.20;99.90
78054;DHT22;67726;45.636;11.752;2024-02-15T03:25:16;6.00;99.90
78054;DHT22;67726;45.636;11.752;2024-02-15T03:27:42;5.90;99.90
78054;DHT22;67726;45.636;11.752;2024-02-15T03:30:07;6.00;99.90
78054;DHT22;67726;45.636;11.752;2024-02-15T03:32:34;5.90;99.90
78054;DHT22;67726;45.636;11.752;2024-02-15T03:34:59;5.90;99.90
78054;DHT22;67726;45.636;11.752;2024-02-15T03:37:26;5.80;99.90
78054;DHT22;67726;45.636;11.752;2024-02-15T03:39:52;5.80;99.90
78054;DHT22;67726;45.636;11.752;2024-02-15T03:42:18;5.60;99.90
78054;DHT22;67726;45.636;11.752;2024-02-15T03:44:43;5.80;99.90
78054;DHT22;67726;45.636;11.752;2024-02-15T03:47:09;5.70;99.90
78054;DHT22;67726;45.636;11.752;2024-02-15T03:49:35;5.50;99.90
78054;DHT22;67726;45.636;11.752;2024-02-15T03:52:00;5.60;99.90
78054;DHT22;67726;45.636;11.752;2024-02-15T03:54:26;5.50;99.90
78054;DHT22;67726;45.636;11.752;2024-02-15T03:56:52;5.60;99.90
78054;DHT22;67726;45.636;11.752;2024-02-15T03:59:19;5.70;99.90
78054;DHT22;67726;45.636;11.752;2024-02-15T04:01:50;5.60;99.90
78054;DHT22;67726;45.636;11.752;2024-02-15T04:04:16;5.60;99.90
78054;DHT22;67726;45.636;11.752;2024-02-15T04:06:42;5.60;99.90
78054;DHT22;67726;45.636;11.752;2024-02-15T04:09:08;5.50;99.90
78054;DHT22;67726;45.636;11.752;2024-02-15T04:11:36;5.50;99.90
78054;DHT22;67726;45.636;11.752;2024-02-15T04:14:03;5.40;99.90
78054;DHT22;67726;45.636;11.752;2024-02-15T04:16:29;5.40;99.90
78054;DHT22;67726;45.636;11.752;2024-02-15T04:18:56;5.30;99.90
78054;DHT22;67726;45.636;11.752;2024-02-15T04:21:23;5.50;99.90
78054;DHT22;67726;45.636;11.752;2024-02-15T04:23:49;5.40;99.90
78054;DHT22;67726;45.636;11.752;2024-02-15T04:26:14;5.50;99.90
78054;DHT22;67726;45.636;11.752;2024-02-15T04:28:40;5.30;99.90
78054;DHT22;67726;45.636;11.752;2024-02-15T04:31:07;5.30;99.90
78054;DHT22;67726;45.636;11.752;2024-02-15T04:33:37;5.30;99.90
78054;DHT22;67726;45.636;11.752;2024-02-15T04:36:05;5.10;99.90
78054;DHT22;67726;45.636;11.752;2024-02-15T04:38:32;5.10;99.90
78054;DHT22;67726;45.636;11.752;2024-02-15T04:41:03;5.10;99.90
78054;DHT22;67726;45.636;11.752;2024-02-15T04:43:30;5.00;99.90
78054;DHT22;67726;45.636;11.752;2024-02-15T04:45:59;5.10;99.90
78054;DHT22;67726;45.636;11.752;2024-02-15T04:48:26;4.90;99.90
78054;DHT22;67726;45.636;11.752;2024-02-15T04:50:52;4.90;99.90
78054;DHT22;67726;45.636;11.752;2024-02-15T04:53:20;5.00;99.90
78054;DHT22;67726;45.636;11.752;2024-02-15T04:55:46;5.00;99.90
78054;DHT22;67726;45.636;11.752;2024-02-15T04:58:12;5.30;99.90
78054;DHT22;67726;45.636;11.752;2024-02-15T05:00:38;5.30;99.90
78054;DHT22;67726;45.636;11.752;2024-02-15T05:03:04;5.00;99.90
78054;DHT22;67726;45.636;11.752;2024-02-15T05:05:29;5.30;99.90
78054;DHT22;67726;45.636;11.752;2024-02-15T05:07:55;5.00;99.90
78054;DHT22;67726;45.636;11.752;2024-02-15T05:10:21;4.80;99.90
78054;DHT22;67726;45.636;11.752;2024-02-15T05:12:46;5.10;99.90
78054;DHT22;67726;45.636;11.752;2024-02-15T05:15:15;4.80;99.90
78054;DHT22;67726;45.636;11.752;2024-02-15T05:17:43;4.80;99.90
78054;DHT22;67726;45.636;11.752;2024-02-15T05:20:11;4.90;99.90
78054;DHT22;67726;45.636;11.752;2024-02-15T05:22:39;4.90;99.90
78054;DHT22;67726;45.636;11.752;2024-02-15T05:25:08;5.00;99.90
78054;DHT22;67726;45.636;11.752;2024-02-15T05:27:34;5.00;99.90
78054;DHT22;67726;45.636;11.752;2024-02-15T05:30:02;4.80;99.90
78054;DHT22;67726;45.636;11.752;2024-02-15T05:32:34;4.80;99.90
78054;DHT22;67726;45.636;11.752;2024-02-15T05:35:11;4.90;99.90
78054;DHT22;67726;45.636;11.752;2024-02-15T05:37:40;4.80;99.90
78054;DHT22;67726;45.636;11.752;2024-02-15T05:40:06;4.60;99.90
78054;DHT22;67726;45.636;11.752;2024-02-15T05:42:32;4.80;99.90
78054;DHT22;67726;45.636;11.752;2024-02-15T05:47:55;4.80;99.90
78054;DHT22;67726;45.636;11.752;2024-02-15T05:50:21;4.70;99.90
78054;DHT22;67726;45.636;11.752;2024-02-15T05:52:49;4.70;99.90
78054;DHT22;67726;45.636;11.752;2024-02-15T05:55:18;4.70;99.90
78054;DHT22;67726;45.636;11.752;2024-02-15T05:57:44;4.70;99.90
78054;DHT22;67726;45.636;11.752;2024-02-15T06:00:11;4.60;99.90
78054;DHT22;67726;45.636;11.752;2024-02-15T06:02:37;4.60;99.90
78054;DHT22;67726;45.636;11.752;2024-02-15T06:05:03;4.60;99.90
78054;DHT22;67726;45.636;11.752;2024-02-15T06:07:32;4.60;99.90
78054;DHT22;67726;45.636;11.752;2024-02-15T06:09:58;4.60;99.90
78054;DHT22;67726;45.636;11.752;2024-02-15T06:12:28;4.70;99.90
78054;DHT22;67726;45.636;11.752;2024-02-15T06:14:54;4.60;99.90
78054;DHT22;67726;45.636;11.752;2024-02-15T06:17:20;4.60;99.90
78054;DHT22;67726;45.636;11.752;2024-02-15T06:19:46;4.60;99.90
78054;DHT22;67726;45.636;11.752;2024-02-15T06:22:12;4.60;99.90
78054;DHT22;67726;45.636;11.752;2024-02-15T06:24:38;4.70;99.90
78054;DHT22;67726;45.636;11.752;2024-02-15T06:27:05;4.50;99.90
78054;DHT22;67726;45.636;11.752;2024-02-15T06:29:31;4.70;99.90
78054;DHT22;67726;45.636;11.752;2024-02-15T06:32:15;4.60;99.90
78054;DHT22;67726;45.636;11.752;2024-02-15T06:34:59;4.60;99.90
78054;DHT22;67726;45.636;11.752;2024-02-15T06:37:43;4.80;99.90
78054;DHT22;67726;45.636;11.752;2024-02-15T06:40:27;4.70;99.90
78054;DHT22;67726;45.636;11.752;2024-02-15T06:42:54;4.70;99.90
78054;DHT22;67726;45.636;11.752;2024-02-15T06:45:20;4.80;99.90
78054;DHT22;67726;45.636;11.752;2024-02-15T06:47:45;4.90;99.90
78054;DHT22;67726;45.636;11.752;2024-02-15T06:50:15;4.80;99.90
78054;DHT22;67726;45.636;11.752;2024-02-15T06:52:42;5.20;99.90
78054;DHT22;67726;45.636;11.752;2024-02-15T06:55:09;5.20;99.90
78054;DHT22;67726;45.636;11.752;2024-02-15T06:57:38;5.30;99.90
78054;DHT22;67726;45.636;11.752;2024-02-15T07:00:08;5.40;99.90
78054;DHT22;67726;45.636;11.752;2024-02-15T07:02:35;5.70;99.90
78054;DHT22;67726;45.636;11.752;2024-02-15T07:05:01;5.70;99.90
78054;DHT22;67726;45.636;11.752;2024-02-15T07:07:28;5.70;99.90
78054;DHT22;67726;45.636;11.752;2024-02-15T07:09:54;5.80;99.90
78054;DHT22;67726;45.636;11.752;2024-02-15T07:12:20;5.80;99.90
78054;DHT22;67726;45.636;11.752;2024-02-15T07:14:47;5.60;99.90
78054;DHT22;67726;45.636;11.752;2024-02-15T07:17:13;5.70;99.90
78054;DHT22;67726;45.636;11.752;2024-02-15T07:19:45;5.80;99.90
78054;DHT22;67726;45.636;11.752;2024-02-15T07:22:15;5.70;99.90
78054;DHT22;67726;45.636;11.752;2024-02-15T07:24:42;6.20;99.90
78054;DHT22;67726;45.636;11.752;2024-02-15T07:27:08;6.30;99.90
78054;DHT22;67726;45.636;11.752;2024-02-15T07:29:34;7.10;99.90
78054;DHT22;67726;45.636;11.752;2024-02-15T07:32:09;7.60;99.90
78054;DHT22;67726;45.636;11.752;2024-02-15T07:34:34;8.10;99.90
78054;DHT22;67726;45.636;11.752;2024-02-15T07:37:02;8.60;99.90
78054;DHT22;67726;45.636;11.752;2024-02-15T07:39:28;8.90;95.30
78054;DHT22;67726;45.636;11.752;2024-02-15T07:41:56;9.30;97.50
78054;DHT22;67726;45.636;11.752;2024-02-15T07:44:25;9.70;98.60
78054;DHT22;67726;45.636;11.752;2024-02-15T07:46:52;10.00;98.50
78054;DHT22;67726;45.636;11.752;2024-02-15T07:49:18;10.40;98.50
78054;DHT22;67726;45.636;11.752;2024-02-15T07:51:44;10.90;99.00
78054;DHT22;67726;45.636;11.752;2024-02-15T07:54:11;11.20;97.70
78054;DHT22;67726;45.636;11.752;2024-02-15T07:56:37;11.50;97.50
78054;DHT22;67726;45.636;11.752;2024-02-15T07:59:04;11.80;96.80
78054;DHT22;67726;45.636;11.752;2024-02-15T08:01:29;12.30;96.60
78054;DHT22;67726;45.636;11.752;2024-02-15T08:03:56;12.70;93.90
78054;DHT22;67726;45.636;11.752;2024-02-15T08:06:22;13.10;93.20
78054;DHT22;67726;45.636;11.752;2024-02-15T08:08:53;13.30;91.40
78054;DHT22;67726;45.636;11.752;2024-02-15T08:11:19;13.40;89.90
78054;DHT22;67726;45.636;11.752;2024-02-15T08:13:50;13.60;90.20
78054;DHT22;67726;45.636;11.752;2024-02-15T08:16:21;13.80;89.40
78054;DHT22;67726;45.636;11.752;2024-02-15T08:18:53;14.10;88.30
78054;DHT22;67726;45.636;11.752;2024-02-15T08:21:33;14.40;88.70
78054;DHT22;67726;45.636;11.752;2024-02-15T08:24:00;14.60;87.40
78054;DHT22;67726;45.636;11.752;2024-02-15T08:26:37;14.80;87.10
78054;DHT22;67726;45.636;11.752;2024-02-15T08:29:09;14.90;87.50
78054;DHT22;67726;45.636;11.752;2024-02-15T08:31:35;15.20;85.70
78054;DHT22;67726;45.636;11.752;2024-02-15T08:34:04;15.60;84.20
78054;DHT22;67726;45.636;11.752;2024-02-15T08:36:35;16.20;83.90
78054;DHT22;67726;45.636;11.752;2024-02-15T08:39:01;16.20;81.30
78054;DHT22;67726;45.636;11.752;2024-02-15T08:41:29;16.40;81.20
78054;DHT22;67726;45.636;11.752;2024-02-15T08:43:54;16.80;82.00
78054;DHT22;67726;45.636;11.752;2024-02-15T08:46:23;17.20;79.30
78054;DHT22;67726;45.636;11.752;2024-02-15T08:48:51;17.90;77.80
78054;DHT22;67726;45.636;11.752;2024-02-15T08:51:17;18.60;78.10
78054;DHT22;67726;45.636;11.752;2024-02-15T08:53:43;19.30;76.50
78054;DHT22;67726;45.636;11.752;2024-02-15T08:56:09;19.60;68.00
78054;DHT22;67726;45.636;11.752;2024-02-15T08:58:36;19.80;69.80
78054;DHT22;67726;45.636;11.752;2024-02-15T09:01:01;19.70;62.50
78054;DHT22;67726;45.636;11.752;2024-02-15T09:03:28;19.50;65.40
78054;DHT22;67726;45.636;11.752;2024-02-15T09:05:54;19.50;67.00
78054;DHT22;67726;45.636;11.752;2024-02-15T09:08:19;19.50;66.80
78054;DHT22;67726;45.636;11.752;2024-02-15T09:10:55;19.40;65.30
78054;DHT22;67726;45.636;11.752;2024-02-15T09:13:20;19.70;66.70
78054;DHT22;67726;45.636;11.752;2024-02-15T09:15:48;19.70;64.20
78054;DHT22;67726;45.636;11.752;2024-02-15T09:18:13;19.90;65.70
78054;DHT22;67726;45.636;11.752;2024-02-15T09:20:39;19.90;64.80
78054;DHT22;67726;45.636;11.752;2024-02-15T09:23:10;19.90;64.90
78054;DHT22;67726;45.636;11.752;2024-02-15T09:25:41;19.90;64.40
78054;DHT22;67726;45.636;11.752;2024-02-15T09:28:09;19.90;65.10
78054;DHT22;67726;45.636;11.752;2024-02-15T09:30:35;20.00;65.60
78054;DHT22;67726;45.636;11.752;2024-02-15T09:33:01;20.40;60.30
78054;DHT22;67726;45.636;11.752;2024-02-15T09:35:30;20.70;63.50
78054;DHT22;67726;45.636;11.752;2024-02-15T09:37:56;21.10;62.40
78054;DHT22;67726;45.636;11.752;2024-02-15T09:40:22;21.40;56.20
78054;DHT22;67726;45.636;11.752;2024-02-15T09:42:52;21.70;57.70
78054;DHT22;67726;45.636;11.752;2024-02-15T09:45:18;21.80;59.10
78054;DHT22;67726;45.636;11.752;2024-02-15T09:47:46;21.90;59.10
78054;DHT22;67726;45.636;11.752;2024-02-15T09:50:15;21.90;56.00
78054;DHT22;67726;45.636;11.752;2024-02-15T09:52:45;21.80;56.60
78054;DHT22;67726;45.636;11.752;2024-02-15T09:55:11;21.80;53.90
78054;DHT22;67726;45.636;11.752;2024-02-15T09:57:43;21.80;54.20
78054;DHT22;67726;45.636;11.752;2024-02-15T10:00:10;21.70;53.10
78054;DHT22;67726;45.636;11.752;2024-02-15T10:02:50;21.60;53.90
78054;DHT22;67726;45.636;11.752;2024-02-15T10:05:18;21.60;50.40
78054;DHT22;67726;45.636;11.752;2024-02-15T10:07:45;21.60;54.10
78054;DHT22;67726;45.636;11.752;2024-02-15T10:10:24;21.50;52.90
78054;DHT22;67726;45.636;11.752;2024-02-15T10:12:52;21.60;50.40
78054;DHT22;67726;45.636;11.752;2024-02-15T10:15:36;21.80;53.70
78054;DHT22;67726;45.636;11.752;2024-02-15T10:18:09;21.90;52.70
78054;DHT22;67726;45.636;11.752;2024-02-15T10:20:39;22.00;52.50
78054;DHT22;67726;45.636;11.752;2024-02-15T10:23:10;22.10;51.70
78054;DHT22;67726;45.636;11.752;2024-02-15T10:25:36;22.20;52.30
78054;DHT22;67726;45.636;11.752;2024-02-15T10:28:03;22.10;50.90
78054;DHT22;67726;45.636;11.752;2024-02-15T10:30:35;22.20;52.20
78054;DHT22;67726;45.636;11.752;2024-02-15T10:33:02;22.30;49.30
78054;DHT22;67726;45.636;11.752;2024-02-15T10:35:28;22.50;51.40
78054;DHT22;67726;45.636;11.752;2024-02-15T10:38:11;22.40;49.30
78054;DHT22;67726;45.636;11.752;2024-02-15T10:40:38;22.20;49.50
78054;DHT22;67726;45.636;11.752;2024-02-15T10:43:06;22.20;50.10
78054;DHT22;67726;45.636;11.752;2024-02-15T10:45:34;22.40;49.80
78054;DHT22;67726;45.636;11.752;2024-02-15T10:48:02;22.40;48.00
78054;DHT22;67726;45.636;11.752;2024-02-15T10:50:30;22.10;47.50
78054;DHT22;67726;45.636;11.752;2024-02-15T10:52:57;22.30;47.30
78054;DHT22;67726;45.636;11.752;2024-02-15T10:58:05;22.30;46.20
78054;DHT22;67726;45.636;11.752;2024-02-15T11:00:34;22.30;45.40
78054;DHT22;67726;45.636;11.752;2024-02-15T11:03:04;22.50;44.20
78054;DHT22;67726;45.636;11.752;2024-02-15T11:05:36;22.80;46.20
78054;DHT22;67726;45.636;11.752;2024-02-15T11:08:07;23.00;41.30
78054;DHT22;67726;45.636;11.752;2024-02-15T11:10:37;23.00;43.90
78054;DHT22;67726;45.636;11.752;2024-02-15T11:13:03;23.10;45.10
78054;DHT22;67726;45.636;11.752;2024-02-15T11:15:48;23.20;44.20
78054;DHT22;67726;45.636;11.752;2024-02-15T11:21:17;23.20;42.60
78054;DHT22;67726;45.636;11.752;2024-02-15T11:23:44;23.40;42.20
78054;DHT22;67726;45.636;11.752;2024-02-15T11:26:45;23.50;44.20
78054;DHT22;67726;45.636;11.752;2024-02-15T11:29:50;23.40;41.60
78054;DHT22;67726;45.636;11.752;2024-02-15T11:32:49;22.50;42.50
78054;DHT22;67726;45.636;11.752;2024-02-15T11:35:22;22.80;43.90
78054;DHT22;67726;45.636;11.752;2024-02-15T11:40:28;22.90;42.40
78054;DHT22;67726;45.636;11.752;2024-02-15T11:42:59;22.80;43.80
78054;DHT22;67726;45.636;11.752;2024-02-15T11:45:25;22.90;44.20
78054;DHT22;67726;45.636;11.752;2024-02-15T11:47:53;22.80;43.00
78054;DHT22;67726;45.636;11.752;2024-02-15T11:50:20;22.90;44.50
78054;DHT22;67726;45.636;11.752;2024-02-15T11:52:51;23.00;42.90
78054;DHT22;67726;45.636;11.752;2024-02-15T11:55:23;22.80;44.20
78054;DHT22;67726;45.636;11.752;2024-02-15T11:57:59;22.50;44.50
78054;DHT22;67726;45.636;11.752;2024-02-15T12:00:34;22.30;43.50
78054;DHT22;67726;45.636;11.752;2024-02-15T12:03:19;22.20;44.60
78054;DHT22;67726;45.636;11.752;2024-02-15T12:06:04;22.20;44.80
78054;DHT22;67726;45.636;11.752;2024-02-15T12:08:51;22.00;43.90
78054;DHT22;67726;45.636;11.752;2024-02-15T12:11:38;22.10;44.40
78054;DHT22;67726;45.636;11.752;2024-02-15T12:14:23;22.20;45.50
78054;DHT22;67726;45.636;11.752;2024-02-15T12:17:08;22.50;45.50
78054;DHT22;67726;45.636;11.752;2024-02-15T12:19:54;23.10;46.10
78054;DHT22;67726;45.636;11.752;2024-02-15T12:22:30;23.50;44.60
78054;DHT22;67726;45.636;11.752;2024-02-15T12:24:58;23.40;44.00
78054;DHT22;67726;45.636;11.752;2024-02-15T12:27:25;22.80;43.80
78054;DHT22;67726;45.636;11.752;2024-02-15T12:29:59;23.00;44.20
78054;DHT22;67726;45.636;11.752;2024-02-15T12:32:26;23.00;44.10
78054;DHT22;67726;45.636;11.752;2024-02-15T12:34:53;23.30;45.60
78054;DHT22;67726;45.636;11.752;2024-02-15T12:37:33;22.90;44.30
78054;DHT22;67726;45.636;11.752;2024-02-15T12:40:13;23.10;44.20
78054;DHT22;67726;45.636;11.752;2024-02-15T12:42:43;23.10;44.80
78054;DHT22;67726;45.636;11.752;2024-02-15T12:45:20;23.00;44.60
78054;DHT22;67726;45.636;11.752;2024-02-15T12:47:53;23.00;44.90
78054;DHT22;67726;45.636;11.752;2024-02-15T12:50:20;22.80;45.40
78054;DHT22;67726;45.636;11.752;2024-02-15T12:52:48;22.90;45.80
78054;DHT22;67726;45.636;11.752;2024-02-15T12:55:16;23.10;45.90
78054;DHT22;67726;45.636;11.752;2024-02-15T12:57:46;23.30;44.70
78054;DHT22;67726;45.636;11.752;2024-02-15T13:00:14;22.20;46.30
78054;DHT22;67726;45.636;11.752;2024-02-15T13:02:46;21.90;47.60
78054;DHT22;67726;45.636;11.752;2024-02-15T13:05:17;22.10;47.00
78054;DHT22;67726;45.636;11.752;2024-02-15T13:07:51;21.50;48.10
78054;DHT22;67726;45.636;11.752;2024-02-15T13:10:17;21.80;47.90
78054;DHT22;67726;45.636;11.752;2024-02-15T13:12:46;21.80;48.40
78054;DHT22;67726;45.636;11.752;2024-02-15T13:15:13;21.30;48.80
78054;DHT22;67726;45.636;11.752;2024-02-15T13:17:47;21.10;49.60
78054;DHT22;67726;45.636;11.752;2024-02-15T13:20:17;21.10;50.20
78054;DHT22;67726;45.636;11.752;2024-02-15T13:22:46;21.10;50.10
78054;DHT22;67726;45.636;11.752;2024-02-15T13:25:15;21.10;50.00
78054;DHT22;67726;45.636;11.752;2024-02-15T13:27:46;21.10;49.60
78054;DHT22;67726;45.636;11.752;2024-02-15T13:30:13;21.10;50.20
78054;DHT22;67726;45.636;11.752;2024-02-15T13:32:39;21.10;49.90
78054;DHT22;67726;45.636;11.752;2024-02-15T13:35:09;21.10;50.40
78054;DHT22;67726;45.636;11.752;2024-02-15T13:37:46;21.00;50.50
78054;DHT22;67726;45.636;11.752;2024-02-15T13:40:12;21.00;50.70
78054;DHT22;67726;45.636;11.752;2024-02-15T13:42:44;20.50;53.40
78054;DHT22;67726;45.636;11.752;2024-02-15T13:45:19;19.80;55.50
78054;DHT22;67726;45.636;11.752;2024-02-15T13:47:48;19.90;56.10
78054;DHT22;67726;45.636;11.752;2024-02-15T13:50:17;19.70;57.10
78054;DHT22;67726;45.636;11.752;2024-02-15T13:52:44;19.60;58.00
78054;DHT22;67726;45.636;11.752;2024-02-15T13:55:11;19.70;58.20
78054;DHT22;67726;45.636;11.752;2024-02-15T13:57:38;19.90;58.30
78054;DHT22;67726;45.636;11.752;2024-02-15T14:00:04;19.70;58.50
78054;DHT22;67726;45.636;11.752;2024-02-15T14:02:31;19.90;58.80
78054;DHT22;67726;45.636;11.752;2024-02-15T14:04:57;19.70;59.50
78054;DHT22;67726;45.636;11.752;2024-02-15T14:07:23;19.60;60.20
78054;DHT22;67726;45.636;11.752;2024-02-15T14:09:48;20.00;59.10
78054;DHT22;67726;45.636;11.752;2024-02-15T14:12:14;19.70;59.60
78054;DHT22;67726;45.636;11.752;2024-02-15T14:14:41;19.70;60.00
78054;DHT22;67726;45.636;11.752;2024-02-15T14:17:06;19.30;59.90
78054;DHT22;67726;45.636;11.752;2024-02-15T14:19:32;19.30;61.00
78054;DHT22;67726;45.636;11.752;2024-02-15T14:21:57;19.50;60.80
78054;DHT22;67726;45.636;11.752;2024-02-15T14:24:23;19.50;61.00
78054;DHT22;67726;45.636;11.752;2024-02-15T14:26:49;19.50;61.70
78054;DHT22;67726;45.636;11.752;2024-02-15T14:29:14;19.40;61.50
78054;DHT22;67726;45.636;11.752;2024-02-15T14:31:41;19.50;62.00
78054;DHT22;67726;45.636;11.752;2024-02-15T14:34:25;19.60;60.80
78054;DHT22;67726;45.636;11.752;2024-02-15T14:36:51;19.80;61.60
78054;DHT22;67726;45.636;11.752;2024-02-15T14:39:16;19.80;59.20
78054;DHT22;67726;45.636;11.752;2024-02-15T14:41:43;19.40;60.80
78054;DHT22;67726;45.636;11.752;2024-02-15T14:44:10;19.30;61.40
78054;DHT22;67726;45.636;11.752;2024-02-15T14:46:36;19.20;61.70
78054;DHT22;67726;45.636;11.752;2024-02-15T14:49:02;19.30;62.10
78054;DHT22;67726;45.636;11.752;2024-02-15T14:51:28;19.20;61.60
78054;DHT22;67726;45.636;11.752;2024-02-15T14:53:54;18.80;63.60
78054;DHT22;67726;45.636;11.752;2024-02-15T14:56:21;18.50;64.40
78054;DHT22;67726;45.636;11.752;2024-02-15T14:58:46;18.40;64.10
78054;DHT22;67726;45.636;11.752;2024-02-15T15:01:12;18.40;65.50
78054;DHT22;67726;45.636;11.752;2024-02-15T15:03:38;18.50;65.30
78054;DHT22;67726;45.636;11.752;2024-02-15T15:06:04;18.30;66.10
78054;DHT22;67726;45.636;11.752;2024-02-15T15:08:50;18.50;65.60
78054;DHT22;67726;45.636;11.752;2024-02-15T15:11:34;18.80;64.40
78054;DHT22;67726;45.636;11.752;2024-02-15T15:14:19;18.90;64.10
78054;DHT22;67726;45.636;11.752;2024-02-15T15:16:44;18.80;63.50
78054;DHT22;67726;45.636;11.752;2024-02-15T15:19:10;18.70;63.80
78054;DHT22;67726;45.636;11.752;2024-02-15T15:21:36;18.70;64.00
78054;DHT22;67726;45.636;11.752;2024-02-15T15:24:02;18.50;64.70
78054;DHT22;67726;45.636;11.752;2024-02-15T15:26:28;18.40;64.80
78054;DHT22;67726;45.636;11.752;2024-02-15T15:28:56;18.40;64.60
78054;DHT22;67726;45.636;11.752;2024-02-15T15:31:22;18.30;64.60
78054;DHT22;67726;45.636;11.752;2024-02-15T15:33:47;18.30;64.50
78054;DHT22;67726;45.636;11.752;2024-02-15T15:36:17;18.30;64.50
78054;DHT22;67726;45.636;11.752;2024-02-15T15:38:44;18.30;64.80
78054;DHT22;67726;45.636;11.752;2024-02-15T15:41:10;18.20;65.60
78054;DHT22;67726;45.636;11.752;2024-02-15T15:43:37;18.00;67.90
78054;DHT22;67726;45.636;11.752;2024-02-15T15:46:03;17.70;69.20